createdAt,value
2018-12-12T00:00:00.440Z,931.47
2018-12-12T00:00:13.404Z,931.46
2018-12-12T00:00:26.294Z,931.39
2018-12-12T00:00:39.240Z,931.39
2018-12-12T00:00:52.121Z,931.4
2018-12-12T00:01:05.072Z,931.45
2018-12-12T00:01:18.090Z,931.42
2018-12-12T00:01:30.596Z,931.44
2018-12-12T00:01:43.580Z,931.43
2018-12-12T00:01:56.085Z,931.39
2018-12-12T00:02:09.065Z,931.37
2018-12-12T00:02:22.052Z,931.44
2018-12-12T00:02:34.960Z,931.39
2018-12-12T00:02:47.883Z,931.38
2018-12-12T00:03:00.807Z,931.43
2018-12-12T00:03:13.760Z,931.39
2018-12-12T00:03:26.718Z,931.37
2018-12-12T00:03:39.635Z,931.44
2018-12-12T00:03:52.557Z,931.39
2018-12-12T00:04:05.029Z,931.44
2018-12-12T00:04:17.990Z,931.4
2018-12-12T00:04:30.942Z,931.41
2018-12-12T00:04:43.863Z,931.43
2018-12-12T00:04:56.800Z,931.42
2018-12-12T00:05:09.772Z,931.44
2018-12-12T00:05:22.655Z,931.41
2018-12-12T00:05:35.587Z,931.44
2018-12-12T00:05:48.533Z,931.45
2018-12-12T00:06:01.500Z,931.42
2018-12-12T00:06:14.419Z,931.43
2018-12-12T00:06:27.327Z,931.49
2018-12-12T00:06:40.281Z,931.48
2018-12-12T00:06:53.222Z,931.44
2018-12-12T00:07:06.256Z,931.47
2018-12-12T00:07:19.185Z,931.46
2018-12-12T00:07:32.108Z,931.48
2018-12-12T00:07:45.077Z,931.44
2018-12-12T00:07:58.043Z,931.46
2018-12-12T00:08:10.970Z,931.47
2018-12-12T00:08:23.937Z,931.5
2018-12-12T00:08:36.869Z,931.48
2018-12-12T00:08:49.817Z,931.48
2018-12-12T00:09:02.794Z,931.48
2018-12-12T00:09:15.732Z,931.44
2018-12-12T00:09:28.719Z,931.5
2018-12-12T00:09:41.190Z,931.53
2018-12-12T00:09:54.097Z,931.51
2018-12-12T00:10:07.044Z,931.52
2018-12-12T00:10:19.982Z,931.47
2018-12-12T00:10:32.878Z,931.51
2018-12-12T00:10:45.787Z,931.51
2018-12-12T00:10:58.711Z,931.49
2018-12-12T00:11:11.657Z,931.48
2018-12-12T00:11:24.554Z,931.47
2018-12-12T00:11:37.470Z,931.5
2018-12-12T00:11:50.377Z,931.51
2018-12-12T00:12:03.324Z,931.51
2018-12-12T00:12:16.285Z,931.52
2018-12-12T00:12:28.746Z,931.52
2018-12-12T00:12:41.679Z,931.52
2018-12-12T00:12:54.624Z,931.54
2018-12-12T00:13:07.538Z,931.54
2018-12-12T00:13:20.477Z,931.51
2018-12-12T00:13:33.452Z,931.5
2018-12-12T00:13:46.405Z,931.5
2018-12-12T00:13:59.368Z,931.5
2018-12-12T00:14:12.294Z,931.46
2018-12-12T00:14:25.211Z,931.53
2018-12-12T00:14:38.138Z,931.5
2018-12-12T00:14:51.047Z,931.52
2018-12-12T00:15:03.989Z,931.51
2018-12-12T00:15:16.920Z,931.5
2018-12-12T00:15:29.845Z,931.53
2018-12-12T00:15:42.374Z,931.5
2018-12-12T00:15:55.313Z,931.48
2018-12-12T00:16:08.228Z,931.53
2018-12-12T00:16:21.180Z,931.52
2018-12-12T00:16:34.155Z,931.53
2018-12-12T00:16:47.059Z,931.51
2018-12-12T00:16:59.988Z,931.52
2018-12-12T00:17:12.966Z,931.48
2018-12-12T00:17:25.926Z,931.5
2018-12-12T00:17:38.872Z,931.53
2018-12-12T00:17:51.797Z,931.51
2018-12-12T00:18:04.742Z,931.52
2018-12-12T00:18:17.612Z,931.5
2018-12-12T00:18:30.509Z,931.53
2018-12-12T00:18:43.439Z,931.52
2018-12-12T00:18:56.366Z,931.53
2018-12-12T00:19:09.274Z,931.54
2018-12-12T00:19:22.206Z,931.49
2018-12-12T00:19:35.104Z,931.51
2018-12-12T00:19:48.029Z,931.53
2018-12-12T00:20:00.998Z,931.49
2018-12-12T00:20:13.889Z,931.52
2018-12-12T00:20:26.918Z,931.52
2018-12-12T00:20:39.876Z,931.51
2018-12-12T00:20:52.854Z,931.52
2018-12-12T00:21:05.812Z,931.51
2018-12-12T00:21:18.777Z,931.53
2018-12-12T00:21:31.711Z,931.5
2018-12-12T00:21:44.587Z,931.49
2018-12-12T00:21:57.524Z,931.47
2018-12-12T00:22:10.465Z,931.5
2018-12-12T00:22:23.416Z,931.44
2018-12-12T00:22:36.341Z,931.53
2018-12-12T00:22:49.272Z,931.5
2018-12-12T00:23:02.593Z,931.61
2018-12-12T00:23:15.503Z,931.53
2018-12-12T00:23:28.408Z,931.47
2018-12-12T00:23:41.390Z,931.46
2018-12-12T00:23:54.311Z,931.42
2018-12-12T00:24:07.317Z,931.48
2018-12-12T00:24:20.282Z,931.5
2018-12-12T00:24:33.212Z,931.44
2018-12-12T00:24:46.134Z,931.48
2018-12-12T00:24:59.059Z,931.47
2018-12-12T00:25:12.018Z,931.48
2018-12-12T00:25:24.908Z,931.42
2018-12-12T00:25:37.854Z,931.44
2018-12-12T00:25:50.801Z,931.49
2018-12-12T00:26:03.745Z,931.45
2018-12-12T00:26:16.651Z,931.48
2018-12-12T00:26:29.602Z,931.47
2018-12-12T00:26:42.581Z,931.48
2018-12-12T00:26:55.069Z,931.51
2018-12-12T00:27:07.990Z,931.48
2018-12-12T00:27:20.459Z,931.52
2018-12-12T00:27:33.407Z,931.48
2018-12-12T00:27:46.381Z,931.49
2018-12-12T00:27:59.287Z,931.48
2018-12-12T00:28:12.198Z,931.5
2018-12-12T00:28:25.171Z,931.51
2018-12-12T00:28:38.113Z,931.48
2018-12-12T00:28:51.079Z,931.48
2018-12-12T00:29:04.009Z,931.49
2018-12-12T00:29:16.934Z,931.47
2018-12-12T00:29:29.868Z,931.42
2018-12-12T00:29:42.855Z,931.46
2018-12-12T00:29:55.765Z,931.5
2018-12-12T00:30:08.763Z,931.47
2018-12-12T00:30:21.748Z,931.45
2018-12-12T00:30:34.692Z,931.44
2018-12-12T00:30:47.593Z,931.48
2018-12-12T00:31:00.544Z,931.43
2018-12-12T00:31:13.039Z,931.45
2018-12-12T00:31:25.988Z,931.43
2018-12-12T00:31:38.971Z,931.48
2018-12-12T00:31:51.907Z,931.47
2018-12-12T00:32:04.807Z,931.49
2018-12-12T00:32:17.828Z,931.47
2018-12-12T00:32:30.719Z,931.46
2018-12-12T00:32:43.703Z,931.45
2018-12-12T00:32:56.665Z,931.46
2018-12-12T00:33:09.590Z,931.43
2018-12-12T00:33:22.533Z,931.42
2018-12-12T00:33:35.458Z,931.42
2018-12-12T00:33:48.378Z,931.49
2018-12-12T00:34:01.320Z,931.47
2018-12-12T00:34:14.272Z,931.49
2018-12-12T00:34:27.191Z,931.47
2018-12-12T00:34:40.125Z,931.46
2018-12-12T00:34:53.110Z,931.45
2018-12-12T00:35:06.086Z,931.47
2018-12-12T00:35:19.044Z,931.48
2018-12-12T00:35:31.993Z,931.52
2018-12-12T00:35:45.153Z,931.45
2018-12-12T00:35:58.116Z,931.47
2018-12-12T00:36:11.040Z,931.43
2018-12-12T00:36:23.925Z,931.45
2018-12-12T00:36:36.884Z,931.5
2018-12-12T00:36:49.794Z,931.47
2018-12-12T00:37:02.705Z,931.45
2018-12-12T00:37:15.673Z,931.49
2018-12-12T00:37:28.606Z,931.48
2018-12-12T00:37:41.564Z,931.51
2018-12-12T00:37:54.494Z,931.48
2018-12-12T00:38:07.432Z,931.48
2018-12-12T00:38:20.597Z,931.47
2018-12-12T00:38:33.562Z,931.48
2018-12-12T00:38:46.455Z,931.48
2018-12-12T00:38:59.393Z,931.51
2018-12-12T00:39:12.309Z,931.49
2018-12-12T00:39:25.218Z,931.47
2018-12-12T00:39:38.170Z,931.57
2018-12-12T00:39:51.171Z,931.51
2018-12-12T00:40:04.072Z,931.56
2018-12-12T00:40:16.991Z,931.52
2018-12-12T00:40:30.032Z,931.54
2018-12-12T00:40:42.931Z,931.5
2018-12-12T00:40:55.856Z,931.53
2018-12-12T00:41:08.767Z,931.53
2018-12-12T00:41:21.748Z,931.52
2018-12-12T00:41:34.693Z,931.54
2018-12-12T00:41:47.643Z,931.53
2018-12-12T00:42:00.578Z,931.5
2018-12-12T00:42:13.510Z,931.51
2018-12-12T00:42:27.853Z,931.51
2018-12-12T00:42:40.762Z,931.5
2018-12-12T00:42:53.730Z,931.56
2018-12-12T00:43:06.648Z,931.48
2018-12-12T00:43:19.632Z,931.52
2018-12-12T00:43:32.578Z,931.54
2018-12-12T00:43:45.500Z,931.52
2018-12-12T00:43:58.437Z,931.56
2018-12-12T00:44:11.377Z,931.53
2018-12-12T00:44:24.379Z,931.53
2018-12-12T00:44:37.352Z,931.56
2018-12-12T00:44:50.282Z,931.54
2018-12-12T00:45:03.206Z,931.55
2018-12-12T00:45:16.110Z,931.56
2018-12-12T00:45:29.078Z,931.57
2018-12-12T00:45:42.044Z,931.58
2018-12-12T00:45:55.001Z,931.54
2018-12-12T00:46:07.896Z,931.56
2018-12-12T00:46:20.418Z,931.59
2018-12-12T00:46:33.338Z,931.59
2018-12-12T00:46:46.282Z,931.6
2018-12-12T00:46:59.230Z,931.62
2018-12-12T00:47:12.181Z,931.6
2018-12-12T00:47:25.137Z,931.57
2018-12-12T00:47:38.059Z,931.6
2018-12-12T00:47:51.035Z,931.6
2018-12-12T00:48:03.971Z,931.63
2018-12-12T00:48:16.947Z,931.65
2018-12-12T00:48:29.868Z,931.61
2018-12-12T00:48:42.801Z,931.58
2018-12-12T00:48:55.774Z,931.6
2018-12-12T00:49:08.738Z,931.62
2018-12-12T00:49:21.687Z,931.59
2018-12-12T00:49:34.590Z,931.58
2018-12-12T00:49:47.506Z,931.6
2018-12-12T00:50:00.516Z,931.6
2018-12-12T00:50:13.470Z,931.61
2018-12-12T00:50:26.463Z,931.62
2018-12-12T00:50:39.404Z,931.58
2018-12-12T00:50:52.341Z,931.59
2018-12-12T00:51:05.275Z,931.64
2018-12-12T00:51:18.274Z,931.6
2018-12-12T00:51:31.234Z,931.6
2018-12-12T00:51:44.171Z,931.59
2018-12-12T00:51:57.095Z,931.6
2018-12-12T00:52:10.061Z,931.67
2018-12-12T00:52:23.014Z,931.64
2018-12-12T00:52:35.965Z,931.62
2018-12-12T00:52:48.837Z,931.6
2018-12-12T00:53:01.797Z,931.62
2018-12-12T00:53:14.741Z,931.6
2018-12-12T00:53:28.496Z,931.67
2018-12-12T00:53:41.437Z,931.69
2018-12-12T00:53:54.413Z,931.69
2018-12-12T00:54:07.358Z,931.68
2018-12-12T00:54:20.243Z,931.66
2018-12-12T00:54:33.153Z,931.65
2018-12-12T00:54:46.066Z,931.63
2018-12-12T00:54:59.010Z,931.68
2018-12-12T00:55:11.931Z,931.61
2018-12-12T00:55:24.859Z,931.65
2018-12-12T00:55:37.798Z,931.69
2018-12-12T00:55:50.742Z,931.57
2018-12-12T00:56:03.730Z,931.62
2018-12-12T00:56:16.632Z,931.57
2018-12-12T00:56:29.110Z,931.59
2018-12-12T00:56:42.029Z,931.61
2018-12-12T00:56:55.014Z,931.57
2018-12-12T00:57:07.993Z,931.6
2018-12-12T00:57:20.946Z,931.57
2018-12-12T00:57:33.876Z,931.61
2018-12-12T00:57:46.814Z,931.62
2018-12-12T00:57:59.762Z,931.56
2018-12-12T00:58:12.267Z,931.59
2018-12-12T00:58:25.243Z,931.59
2018-12-12T00:58:38.149Z,931.65
2018-12-12T00:58:51.016Z,931.58
2018-12-12T00:59:03.539Z,931.61
2018-12-12T00:59:16.460Z,931.6
2018-12-12T00:59:29.443Z,931.57
2018-12-12T00:59:42.392Z,931.56
2018-12-12T00:59:55.316Z,931.56
2018-12-12T01:00:08.288Z,931.57
2018-12-12T01:00:21.267Z,931.62
2018-12-12T01:00:34.240Z,931.6
2018-12-12T01:00:47.155Z,931.63
2018-12-12T01:01:00.064Z,931.6
2018-12-12T01:01:12.952Z,931.6
2018-12-12T01:01:25.912Z,931.61
2018-12-12T01:01:38.839Z,931.66
2018-12-12T01:01:51.713Z,931.61
2018-12-12T01:02:04.716Z,931.64
2018-12-12T01:02:17.685Z,931.62
2018-12-12T01:02:30.630Z,931.65
2018-12-12T01:02:43.533Z,931.63
2018-12-12T01:02:56.511Z,931.57
2018-12-12T01:03:09.457Z,931.61
2018-12-12T01:03:22.385Z,931.62
2018-12-12T01:03:35.317Z,931.59
2018-12-12T01:03:48.278Z,931.61
2018-12-12T01:04:01.247Z,931.62
2018-12-12T01:04:14.162Z,931.65
2018-12-12T01:04:27.120Z,931.59
2018-12-12T01:04:40.080Z,931.62
2018-12-12T01:04:53.003Z,931.63
2018-12-12T01:05:05.993Z,931.64
2018-12-12T01:05:18.975Z,931.63
2018-12-12T01:05:31.923Z,931.62
2018-12-12T01:05:44.891Z,931.58
2018-12-12T01:05:57.850Z,931.6
2018-12-12T01:06:10.778Z,931.63
2018-12-12T01:06:23.713Z,931.6
2018-12-12T01:06:36.710Z,931.64
2018-12-12T01:06:49.636Z,931.63
2018-12-12T01:07:02.542Z,931.67
2018-12-12T01:07:15.495Z,931.68
2018-12-12T01:07:28.423Z,931.67
2018-12-12T01:07:41.362Z,931.63
2018-12-12T01:07:54.283Z,931.64
2018-12-12T01:08:07.216Z,931.61
2018-12-12T01:08:20.140Z,931.62
2018-12-12T01:08:33.277Z,931.58
2018-12-12T01:08:46.183Z,931.6
2018-12-12T01:08:59.085Z,931.61
2018-12-12T01:09:12.039Z,931.61
2018-12-12T01:09:24.999Z,931.66
2018-12-12T01:09:37.924Z,931.58
2018-12-12T01:09:50.904Z,931.57
2018-12-12T01:10:03.870Z,931.6
2018-12-12T01:10:16.791Z,931.57
2018-12-12T01:10:29.754Z,931.66
2018-12-12T01:10:42.694Z,931.58
2018-12-12T01:10:55.645Z,931.6
2018-12-12T01:11:08.595Z,931.58
2018-12-12T01:11:21.556Z,931.57
2018-12-12T01:11:34.526Z,931.59
2018-12-12T01:11:47.466Z,931.59
2018-12-12T01:12:00.453Z,931.61
2018-12-12T01:12:13.421Z,931.59
2018-12-12T01:12:26.331Z,931.61
2018-12-12T01:12:39.272Z,931.59
2018-12-12T01:12:52.200Z,931.59
2018-12-12T01:13:05.108Z,931.59
2018-12-12T01:13:18.073Z,931.59
2018-12-12T01:13:31.050Z,931.6
2018-12-12T01:13:43.578Z,931.61
2018-12-12T01:13:56.553Z,931.64
2018-12-12T01:14:09.549Z,931.6
2018-12-12T01:14:22.529Z,931.59
2018-12-12T01:14:35.442Z,931.58
2018-12-12T01:14:48.364Z,931.62
2018-12-12T01:15:01.343Z,931.61
2018-12-12T01:15:14.344Z,931.6
2018-12-12T01:15:27.293Z,931.6
2018-12-12T01:15:40.214Z,931.59
2018-12-12T01:15:53.131Z,931.63
2018-12-12T01:16:06.035Z,931.6
2018-12-12T01:16:18.949Z,931.6
2018-12-12T01:16:31.841Z,931.63
2018-12-12T01:16:44.802Z,931.64
2018-12-12T01:16:57.757Z,931.62
2018-12-12T01:17:10.678Z,931.63
2018-12-12T01:17:23.614Z,931.64
2018-12-12T01:17:36.540Z,931.61
2018-12-12T01:17:49.471Z,931.64
2018-12-12T01:18:02.403Z,931.65
2018-12-12T01:18:15.336Z,931.62
2018-12-12T01:18:28.271Z,931.58
2018-12-12T01:18:41.216Z,931.59
2018-12-12T01:18:54.142Z,931.65
2018-12-12T01:19:07.027Z,931.62
2018-12-12T01:19:19.987Z,931.63
2018-12-12T01:19:32.943Z,931.57
2018-12-12T01:19:45.883Z,931.61
2018-12-12T01:19:58.781Z,931.59
2018-12-12T01:20:11.740Z,931.57
2018-12-12T01:20:24.723Z,931.59
2018-12-12T01:20:37.620Z,931.58
2018-12-12T01:20:50.543Z,931.55
2018-12-12T01:21:03.510Z,931.56
2018-12-12T01:21:16.450Z,931.58
2018-12-12T01:21:28.952Z,931.6
2018-12-12T01:21:41.918Z,931.59
2018-12-12T01:21:54.917Z,931.55
2018-12-12T01:22:07.873Z,931.57
2018-12-12T01:22:20.814Z,931.57
2018-12-12T01:22:33.747Z,931.62
2018-12-12T01:22:46.693Z,931.6
2018-12-12T01:22:59.640Z,931.58
2018-12-12T01:23:12.557Z,931.59
2018-12-12T01:23:25.525Z,931.6
2018-12-12T01:23:39.219Z,931.56
2018-12-12T01:23:52.152Z,931.59
2018-12-12T01:24:05.145Z,931.57
2018-12-12T01:24:18.095Z,931.56
2018-12-12T01:24:31.023Z,931.56
2018-12-12T01:24:43.919Z,931.54
2018-12-12T01:24:56.843Z,931.58
2018-12-12T01:25:09.765Z,931.54
2018-12-12T01:25:22.696Z,931.51
2018-12-12T01:25:35.631Z,931.56
2018-12-12T01:25:48.596Z,931.57
2018-12-12T01:26:01.503Z,931.54
2018-12-12T01:26:14.431Z,931.55
2018-12-12T01:26:27.343Z,931.53
2018-12-12T01:26:40.274Z,931.52
2018-12-12T01:26:53.211Z,931.56
2018-12-12T01:27:06.128Z,931.55
2018-12-12T01:27:19.074Z,931.54
2018-12-12T01:27:32.013Z,931.55
2018-12-12T01:27:44.939Z,931.52
2018-12-12T01:27:57.888Z,931.53
2018-12-12T01:28:10.821Z,931.56
2018-12-12T01:28:23.754Z,931.54
2018-12-12T01:28:36.705Z,931.53
2018-12-12T01:28:49.692Z,931.51
2018-12-12T01:29:02.574Z,931.53
2018-12-12T01:29:15.543Z,931.52
2018-12-12T01:29:28.520Z,931.53
2018-12-12T01:29:41.500Z,931.57
2018-12-12T01:29:54.467Z,931.59
2018-12-12T01:30:07.411Z,931.5
2018-12-12T01:30:20.362Z,931.55
2018-12-12T01:30:33.341Z,931.54
2018-12-12T01:30:46.282Z,931.56
2018-12-12T01:30:59.234Z,931.51
2018-12-12T01:31:12.152Z,931.52
2018-12-12T01:31:25.049Z,931.51
2018-12-12T01:31:37.985Z,931.51
2018-12-12T01:31:50.936Z,931.49
2018-12-12T01:32:03.924Z,931.53
2018-12-12T01:32:16.839Z,931.52
2018-12-12T01:32:29.805Z,931.53
2018-12-12T01:32:42.722Z,931.5
2018-12-12T01:32:55.643Z,931.52
2018-12-12T01:33:08.537Z,931.55
2018-12-12T01:33:21.493Z,931.54
2018-12-12T01:33:34.753Z,931.5
2018-12-12T01:33:47.676Z,931.51
2018-12-12T01:34:00.132Z,931.53
2018-12-12T01:34:13.066Z,931.5
2018-12-12T01:34:25.997Z,931.52
2018-12-12T01:34:38.988Z,931.5
2018-12-12T01:34:51.925Z,931.53
2018-12-12T01:35:04.805Z,931.53
2018-12-12T01:35:17.721Z,931.5
2018-12-12T01:35:30.695Z,931.52
2018-12-12T01:35:43.147Z,931.55
2018-12-12T01:35:56.067Z,931.55
2018-12-12T01:36:09.050Z,931.56
2018-12-12T01:36:22.007Z,931.53
2018-12-12T01:36:34.906Z,931.56
2018-12-12T01:36:47.946Z,931.55
2018-12-12T01:37:00.857Z,931.56
2018-12-12T01:37:13.796Z,931.53
2018-12-12T01:37:26.732Z,931.55
2018-12-12T01:37:39.673Z,931.56
2018-12-12T01:37:52.660Z,931.56
2018-12-12T01:38:05.604Z,931.56
2018-12-12T01:38:18.570Z,931.57
2018-12-12T01:38:31.529Z,931.52
2018-12-12T01:38:45.103Z,931.56
2018-12-12T01:38:58.065Z,931.52
2018-12-12T01:39:10.524Z,931.55
2018-12-12T01:39:23.479Z,931.58
2018-12-12T01:39:36.380Z,931.54
2018-12-12T01:39:49.343Z,931.55
2018-12-12T01:40:02.284Z,931.58
2018-12-12T01:40:15.220Z,931.53
2018-12-12T01:40:28.176Z,931.52
2018-12-12T01:40:41.072Z,931.55
2018-12-12T01:40:54.002Z,931.55
2018-12-12T01:41:06.923Z,931.53
2018-12-12T01:41:19.826Z,931.56
2018-12-12T01:41:32.799Z,931.54
2018-12-12T01:41:45.779Z,931.52
2018-12-12T01:41:58.669Z,931.53
2018-12-12T01:42:11.603Z,931.53
2018-12-12T01:42:24.555Z,931.54
2018-12-12T01:42:37.473Z,931.53
2018-12-12T01:42:50.446Z,931.51
2018-12-12T01:43:03.401Z,931.48
2018-12-12T01:43:16.345Z,931.51
2018-12-12T01:43:29.257Z,931.52
2018-12-12T01:43:42.245Z,931.53
2018-12-12T01:43:55.196Z,931.53
2018-12-12T01:44:08.100Z,931.51
2018-12-12T01:44:21.069Z,931.52
2018-12-12T01:44:34.023Z,931.52
2018-12-12T01:44:46.951Z,931.52
2018-12-12T01:44:59.920Z,931.53
2018-12-12T01:45:12.890Z,931.51
2018-12-12T01:45:25.824Z,931.53
2018-12-12T01:45:38.797Z,931.52
2018-12-12T01:45:51.761Z,931.53
2018-12-12T01:46:04.706Z,931.47
2018-12-12T01:46:17.676Z,931.52
2018-12-12T01:46:30.654Z,931.48
2018-12-12T01:46:43.589Z,931.51
2018-12-12T01:46:56.505Z,931.52
2018-12-12T01:47:09.431Z,931.52
2018-12-12T01:47:22.375Z,931.49
2018-12-12T01:47:35.348Z,931.51
2018-12-12T01:47:48.254Z,931.49
2018-12-12T01:48:01.229Z,931.47
2018-12-12T01:48:14.196Z,931.51
2018-12-12T01:48:27.157Z,931.48
2018-12-12T01:48:40.093Z,931.49
2018-12-12T01:48:52.574Z,931.49
2018-12-12T01:49:05.530Z,931.43
2018-12-12T01:49:18.471Z,931.46
2018-12-12T01:49:31.450Z,931.45
2018-12-12T01:49:44.409Z,931.47
2018-12-12T01:49:57.391Z,931.45
2018-12-12T01:50:10.374Z,931.46
2018-12-12T01:50:23.281Z,931.44
2018-12-12T01:50:36.259Z,931.46
2018-12-12T01:50:49.211Z,931.47
2018-12-12T01:51:02.239Z,931.49
2018-12-12T01:51:15.172Z,931.45
2018-12-12T01:51:28.183Z,931.47
2018-12-12T01:51:41.136Z,931.46
2018-12-12T01:51:54.155Z,931.47
2018-12-12T01:52:07.116Z,931.49
2018-12-12T01:52:19.652Z,931.5
2018-12-12T01:52:32.628Z,931.49
2018-12-12T01:52:45.571Z,931.47
2018-12-12T01:52:58.580Z,931.48
2018-12-12T01:53:11.527Z,931.46
2018-12-12T01:53:24.487Z,931.45
2018-12-12T01:53:37.416Z,931.48
2018-12-12T01:53:51.113Z,931.47
2018-12-12T01:54:04.086Z,931.5
2018-12-12T01:54:16.617Z,931.46
2018-12-12T01:54:29.547Z,931.46
2018-12-12T01:54:42.431Z,931.45
2018-12-12T01:54:55.361Z,931.45
2018-12-12T01:55:08.305Z,931.45
2018-12-12T01:55:21.261Z,931.46
2018-12-12T01:55:34.219Z,931.43
2018-12-12T01:55:47.175Z,931.44
2018-12-12T01:56:00.132Z,931.45
2018-12-12T01:56:13.120Z,931.44
2018-12-12T01:56:26.049Z,931.46
2018-12-12T01:56:39.027Z,931.45
2018-12-12T01:56:51.964Z,931.46
2018-12-12T01:57:04.905Z,931.45
2018-12-12T01:57:17.877Z,931.46
2018-12-12T01:57:30.827Z,931.49
2018-12-12T01:57:44.487Z,931.48
2018-12-12T01:57:57.398Z,931.46
2018-12-12T01:58:10.374Z,931.46
2018-12-12T01:58:23.347Z,931.47
2018-12-12T01:58:36.277Z,931.44
2018-12-12T01:58:49.284Z,931.46
2018-12-12T01:59:02.265Z,931.45
2018-12-12T01:59:15.183Z,931.46
2018-12-12T01:59:27.681Z,931.49
2018-12-12T01:59:40.599Z,931.48
2018-12-12T01:59:53.585Z,931.5
2018-12-12T02:00:06.572Z,931.5
2018-12-12T02:00:19.491Z,931.45
2018-12-12T02:00:32.518Z,931.43
2018-12-12T02:00:45.463Z,931.42
2018-12-12T02:00:58.375Z,931.47
2018-12-12T02:01:11.346Z,931.44
2018-12-12T02:01:24.242Z,931.46
2018-12-12T02:01:37.209Z,931.46
2018-12-12T02:01:50.176Z,931.46
2018-12-12T02:02:03.151Z,931.48
2018-12-12T02:02:16.112Z,931.47
2018-12-12T02:02:29.063Z,931.47
2018-12-12T02:02:42.048Z,931.45
2018-12-12T02:02:55.029Z,931.45
2018-12-12T02:03:07.977Z,931.46
2018-12-12T02:03:20.932Z,931.46
2018-12-12T02:03:33.861Z,931.46
2018-12-12T02:03:47.087Z,931.45
2018-12-12T02:04:00.056Z,931.44
2018-12-12T02:04:12.979Z,931.44
2018-12-12T02:04:25.958Z,931.45
2018-12-12T02:04:38.901Z,931.46
2018-12-12T02:04:51.961Z,931.45
2018-12-12T02:05:04.917Z,931.45
2018-12-12T02:05:17.894Z,931.42
2018-12-12T02:05:30.886Z,931.4
2018-12-12T02:05:43.817Z,931.43
2018-12-12T02:05:56.776Z,931.44
2018-12-12T02:06:09.715Z,931.46
2018-12-12T02:06:22.653Z,931.42
2018-12-12T02:06:35.595Z,931.45
2018-12-12T02:06:48.549Z,931.42
2018-12-12T02:07:01.421Z,931.4
2018-12-12T02:07:14.355Z,931.43
2018-12-12T02:07:27.283Z,931.41
2018-12-12T02:07:40.319Z,931.44
2018-12-12T02:07:53.289Z,931.45
2018-12-12T02:08:06.181Z,931.46
2018-12-12T02:08:19.178Z,931.45
2018-12-12T02:08:32.180Z,931.46
2018-12-12T02:08:46.224Z,931.44
2018-12-12T02:09:00.002Z,931.41
2018-12-12T02:09:12.922Z,931.41
2018-12-12T02:09:25.843Z,931.41
2018-12-12T02:09:38.800Z,931.42
2018-12-12T02:09:51.765Z,931.4
2018-12-12T02:10:04.751Z,931.45
2018-12-12T02:10:17.657Z,931.44
2018-12-12T02:10:30.652Z,931.46
2018-12-12T02:10:43.143Z,931.4
2018-12-12T02:10:57.548Z,931.44
2018-12-12T02:11:10.467Z,931.41
2018-12-12T02:11:23.433Z,931.41
2018-12-12T02:11:36.406Z,931.45
2018-12-12T02:11:49.392Z,931.41
2018-12-12T02:12:02.376Z,931.41
2018-12-12T02:12:15.352Z,931.45
2018-12-12T02:12:28.336Z,931.43
2018-12-12T02:12:41.273Z,931.42
2018-12-12T02:12:54.245Z,931.41
2018-12-12T02:13:07.235Z,931.41
2018-12-12T02:13:20.181Z,931.39
2018-12-12T02:13:33.148Z,931.37
2018-12-12T02:13:46.095Z,931.4
2018-12-12T02:13:58.973Z,931.42
2018-12-12T02:14:11.907Z,931.44
2018-12-12T02:14:24.857Z,931.43
2018-12-12T02:14:37.796Z,931.39
2018-12-12T02:14:50.765Z,931.39
2018-12-12T02:15:03.722Z,931.38
2018-12-12T02:15:16.740Z,931.38
2018-12-12T02:15:29.716Z,931.38
2018-12-12T02:15:42.708Z,931.4
2018-12-12T02:15:55.661Z,931.38
2018-12-12T02:16:08.640Z,931.34
2018-12-12T02:16:21.628Z,931.37
2018-12-12T02:16:34.536Z,931.39
2018-12-12T02:16:47.507Z,931.36
2018-12-12T02:17:00.499Z,931.3
2018-12-12T02:17:13.459Z,931.35
2018-12-12T02:17:26.400Z,931.36
2018-12-12T02:17:39.307Z,931.32
2018-12-12T02:17:52.208Z,931.3
2018-12-12T02:18:05.191Z,931.3
2018-12-12T02:18:18.160Z,931.29
2018-12-12T02:18:31.098Z,931.29
2018-12-12T02:18:44.117Z,931.31
2018-12-12T02:18:57.064Z,931.3
2018-12-12T02:19:10.009Z,931.31
2018-12-12T02:19:22.970Z,931.27
2018-12-12T02:19:35.912Z,931.27
2018-12-12T02:19:48.853Z,931.29
2018-12-12T02:20:01.793Z,931.23
2018-12-12T02:20:14.697Z,931.24
2018-12-12T02:20:27.635Z,931.26
2018-12-12T02:20:40.562Z,931.28
2018-12-12T02:20:53.483Z,931.21
2018-12-12T02:21:06.453Z,931.26
2018-12-12T02:21:19.474Z,931.23
2018-12-12T02:21:32.410Z,931.22
2018-12-12T02:21:45.309Z,931.25
2018-12-12T02:21:58.249Z,931.27
2018-12-12T02:22:11.194Z,931.3
2018-12-12T02:22:24.158Z,931.28
2018-12-12T02:22:37.069Z,931.29
2018-12-12T02:22:50.148Z,931.23
2018-12-12T02:23:03.051Z,931.29
2018-12-12T02:23:16.050Z,931.28
2018-12-12T02:23:29.055Z,931.3
2018-12-12T02:23:42.004Z,931.26
2018-12-12T02:23:54.940Z,931.28
2018-12-12T02:24:08.697Z,931.31
2018-12-12T02:24:21.635Z,931.25
2018-12-12T02:24:34.144Z,931.31
2018-12-12T02:24:47.090Z,931.3
2018-12-12T02:24:59.976Z,931.32
2018-12-12T02:25:12.933Z,931.29
2018-12-12T02:25:25.886Z,931.29
2018-12-12T02:25:38.862Z,931.29
2018-12-12T02:25:51.772Z,931.3
2018-12-12T02:26:04.710Z,931.32
2018-12-12T02:26:17.709Z,931.3
2018-12-12T02:26:30.664Z,931.34
2018-12-12T02:26:43.638Z,931.34
2018-12-12T02:26:56.587Z,931.33
2018-12-12T02:27:09.542Z,931.35
2018-12-12T02:27:22.504Z,931.34
2018-12-12T02:27:35.453Z,931.31
2018-12-12T02:27:48.382Z,931.33
2018-12-12T02:28:01.315Z,931.33
2018-12-12T02:28:14.278Z,931.33
2018-12-12T02:28:27.231Z,931.33
2018-12-12T02:28:40.152Z,931.34
2018-12-12T02:28:53.062Z,931.32
2018-12-12T02:29:06.002Z,931.34
2018-12-12T02:29:18.958Z,931.29
2018-12-12T02:29:31.923Z,931.33
2018-12-12T02:29:44.830Z,931.3
2018-12-12T02:29:57.742Z,931.29
2018-12-12T02:30:10.736Z,931.3
2018-12-12T02:30:23.715Z,931.28
2018-12-12T02:30:36.686Z,931.3
2018-12-12T02:30:49.636Z,931.33
2018-12-12T02:31:02.574Z,931.29
2018-12-12T02:31:15.491Z,931.31
2018-12-12T02:31:28.453Z,931.3
2018-12-12T02:31:41.365Z,931.28
2018-12-12T02:31:54.268Z,931.27
2018-12-12T02:32:07.169Z,931.3
2018-12-12T02:32:20.166Z,931.28
2018-12-12T02:32:33.105Z,931.29
2018-12-12T02:32:46.035Z,931.27
2018-12-12T02:32:58.992Z,931.26
2018-12-12T02:33:11.936Z,931.29
2018-12-12T02:33:24.891Z,931.28
2018-12-12T02:33:37.511Z,931.24
2018-12-12T02:33:50.489Z,931.24
2018-12-12T02:34:03.768Z,931.23
2018-12-12T02:34:16.702Z,931.2
2018-12-12T02:34:29.641Z,931.22
2018-12-12T02:34:42.623Z,931.23
2018-12-12T02:34:55.595Z,931.2
2018-12-12T02:35:08.543Z,931.21
2018-12-12T02:35:21.489Z,931.19
2018-12-12T02:35:34.460Z,931.21
2018-12-12T02:35:47.364Z,931.21
2018-12-12T02:36:00.339Z,931.18
2018-12-12T02:36:13.263Z,931.18
2018-12-12T02:36:26.210Z,931.16
2018-12-12T02:36:39.194Z,931.18
2018-12-12T02:36:52.137Z,931.18
2018-12-12T02:37:05.069Z,931.16
2018-12-12T02:37:18.051Z,931.16
2018-12-12T02:37:31.011Z,931.17
2018-12-12T02:37:43.945Z,931.17
2018-12-12T02:37:56.920Z,931.15
2018-12-12T02:38:09.937Z,931.16
2018-12-12T02:38:22.839Z,931.13
2018-12-12T02:38:35.329Z,931.14
2018-12-12T02:38:48.262Z,931.13
2018-12-12T02:39:01.247Z,931.11
2018-12-12T02:39:15.148Z,931.11
2018-12-12T02:39:28.106Z,931.1
2018-12-12T02:39:41.047Z,931.13
2018-12-12T02:39:54.038Z,931.08
2018-12-12T02:40:07.041Z,931.1
2018-12-12T02:40:19.991Z,931.08
2018-12-12T02:40:32.976Z,931.08
2018-12-12T02:40:45.882Z,931.03
2018-12-12T02:40:58.785Z,931.05
2018-12-12T02:41:11.804Z,931.05
2018-12-12T02:41:24.751Z,931.03
2018-12-12T02:41:37.756Z,931.04
2018-12-12T02:41:50.749Z,931.03
2018-12-12T02:42:03.740Z,931